Aviation Digital Data Service (ADDS)

Output produced by METARs form (1530 UTC 26 May 2015)
found at http://www.aviationweather.gov/adds/metars/
 
KCRQ 261453Z AUTO 34004KT 7SM SCT008 OVC016 16/14 A2999 RMK AO2 RAB25E35 SLP153 P0000 60000 T01610139 53005
KCRQ 261440Z AUTO 00000KT 6SM BR BKN008 OVC013 16/14 A2999 RMK AO2 RAB25E35 CIG 006V010 P0000 T01610139
KCRQ 261419Z AUTO 00000KT 4SM BR FEW008 OVC013 16/14 A2999 RMK AO2 T01610139
KCRQ 261411Z AUTO 32003KT 5SM BR OVC013 16/14 A2999 RMK AO2 T01610139
KCRQ 261353Z AUTO 34003KT 9SM FEW008 OVC015 16/13 A2998 RMK AO2 SLP151 T01610133
KCRQ 261300Z AUTO 00000KT 10SM SCT008 OVC015 16/13 A2997 RMK AO2 T01610133
KCRQ 261253Z AUTO 27003KT 10SM BKN008 OVC015 16/13 A2997 RMK AO2 SLP148 T01610133
KCRQ 261224Z AUTO 00000KT 8SM OVC009 16/14 A2997 RMK AO2 T01610139
KCRQ 261153Z AUTO 00000KT 10SM OVC011 16/13 A2997 RMK AO2 SLP148 T01610133 10167 20161 53002
KCRQ 261452Z 2615/2712 VRB04KT 6SM BR FEW008 OVC012 
     TEMPO 2615/2618 4SM -DZ BR BKN008 
     FM261800 25008KT P6SM BKN017 
     FM270100 VRB04KT P6SM OVC015